This is the latest recevied weather packets stored in our database for station/object OH2MUI. If no packets are shown the sender has not sent any weather packets the latest 10 day(s).
| Time | Temp. | Humidity | Pressure | Rain* | Wind** | Luminosity | Snow |
|---|---|---|---|---|---|---|---|
| 1778150119 | 13.33° C | 35% | 1016.9 hPa | 0 mm | - | - | - |
| 1778148944 | 13.33° C | 36% | 1016.9 hPa | 0 mm | - | - | - |
| 1778147804 | 12.78° C | 37% | 1016.8 hPa | 0 mm | - | - | - |
| 1778146799 | 12.78° C | 38% | 1016.9 hPa | 0 mm | - | - | - |
| 1778145764 | 12.22° C | 39% | 1016.9 hPa | 0 mm | - | - | - |
| 1778144724 | 12.22° C | 40% | 1017 hPa | 0 mm | - | - | - |
| 1778143539 | 11.11° C | 43% | 1017.2 hPa | 0 mm | - | - | - |
| 1778142509 | 11.11° C | 44% | 1017.3 hPa | 0 mm | - | - | - |
| 1778141454 | 10.56° C | 45% | 1017.3 hPa | 0 mm | - | - | - |
| 1778140369 | 10.56° C | 45% | 1017.4 hPa | 0 mm | - | - | - |
| 1778139349 | 9.44° C | 53% | 1017.5 hPa | 0 mm | - | - | - |
| 1778138374 | 8.89° C | 56% | 1017.6 hPa | 0 mm | - | - | - |
| 1778137342 | 8.33° C | - | - | 0 mm | - | - | - |
| 1778137340 | 8.33° C | - | - | 0 mm | - | - | - |
| 1778137334 | 8.33° C | 59% | 1017.5 hPa | 0 mm | - | - | - |
| 1778136179 | 7.22° C | 61% | 1017.7 hPa | 0 mm | - | - | - |
| 1778134979 | 5.56° C | 74% | 1017.7 hPa | 0 mm | - | - | - |
| 1778133994 | 3.89° C | 82% | 1017.8 hPa | 0 mm | - | - | - |
| 1778132945 | 2.78° C | 85% | 1017.7 hPa | 0 mm | - | - | - |
| 1778131874 | 1.67° C | 89% | 1017.4 hPa | 0 mm | - | - | - |
| 1778130856 | 0.56° C | 91% | 1017.4 hPa | 0 mm | - | - | - |
| 1778129747 | 0° C | 90% | 1017.5 hPa | 0 mm | - | - | - |
| 1778128769 | -0.56° C | 90% | 1017.5 hPa | 0 mm | - | - | - |
| 1778127632 | -1.11° C | 91% | 1017.6 hPa | 0 mm | - | - | - |
| 1778126489 | -1.67° C | 90% | 1017.6 hPa | 0 mm | - | - | - |
* Rain latest hour (hover to see other rain measurements)
** Current wind speed in m/s (hover to see current wind gust speed)